Terminal Aerodrome Forecast
Issued by NWS

Home | Current Version | Previous Version | Graphics & Text | Print | Product List | Glossary On
Versions: 1 2 3 4 5 6 7 8 9 10 11 12 13 14 15 16 17 18
000
FTUS43 KGRB 182300
TAFCWA
TAF
KCWA 182337Z 1900/1924 13006KT P6SM SCT020
     FM190900 17007KT 5SM BR FEW100 SCT250
     FM191400 19010G16KT P6SM SCT100 BKN250
      AMD LTD TO CLD VIS AND WIND 1903/1911=

USA.gov is the U.S. government's official web portal to all federal, state and local government web resources and services.